Terminal Aerodrome Forecast
Issued by NWS Albany, NY

Home | Current Version | Previous Version | Text Only | Print | Product List | Glossary On
Versions: 1 2 3 4 5 6 7 8 9 10 11 12 13 14 15
000
FTUS41 KALY 231125
TAFALB
TAF
KALB 231125Z 2312/2412 18008KT P6SM SCT080 BKN100
     FM231500 18012G20KT P6SM OVC050
     FM231800 19015G22KT P6SM VCSH SCT025 OVC050
     FM232200 20015G24KT P6SM VCSH BKN025 OVC050 PROB30 2322/2404
      4SM -TSRA BR OVC025CB
     FM240400 21012G18KT 4SM -SHRA BR OVC025
     FM240800 23008KT 3SM BR VCSH OVC015=

USA.gov is the U.S. government's official web portal to all federal, state and local government web resources and services.